Terminal Aerodrome Forecast
Issued by NWS Honolulu, HI

Home | Current Version | Previous Version | Text Only | Print | Product List | Glossary On
Versions: 1 2 3 4 5 6 7 8 9 10 11 12 13 14 15 16 17 18 19 20 21 22 23 24
000
FTPA31 PHFO 291131
TAFHNL
TAF
PHNL 291131Z 2912/3018 06012KT P6SM FEW025 SCT045 BKN070
     FM292100 06015G23KT P6SM FEW045 SCT070
     FM301200 06012KT P6SM FEW045 SCT070=

USA.gov is the U.S. government's official web portal to all federal, state and local government web resources and services.